sensor_id;sensor_type;location;lat;lon;timestamp;P1;durP1;ratioP1;P2;durP2;ratioP2
22965;SDS011;11649;48.090;9.754;2022-11-15T00:00:55;11.25;;;7.03;;
22965;SDS011;11649;48.090;9.754;2022-11-15T00:03:24;14.05;;;9.30;;
22965;SDS011;11649;48.090;9.754;2022-11-15T00:05:52;15.73;;;10.90;;
22965;SDS011;11649;48.090;9.754;2022-11-15T00:08:18;13.35;;;8.93;;
22965;SDS011;11649;48.090;9.754;2022-11-15T00:10:58;14.68;;;10.60;;
22965;SDS011;11649;48.090;9.754;2022-11-15T00:13:27;12.55;;;8.32;;
22965;SDS011;11649;48.090;9.754;2022-11-15T00:15:58;12.15;;;8.23;;
22965;SDS011;11649;48.090;9.754;2022-11-15T00:18:26;13.95;;;9.00;;
22965;SDS011;11649;48.090;9.754;2022-11-15T00:20:54;10.02;;;7.30;;
22965;SDS011;11649;48.090;9.754;2022-11-15T00:23:21;11.75;;;7.55;;
22965;SDS011;11649;48.090;9.754;2022-11-15T00:25:54;14.63;;;8.68;;
22965;SDS011;11649;48.090;9.754;2022-11-15T00:28:22;11.52;;;8.30;;
22965;SDS011;11649;48.090;9.754;2022-11-15T00:30:49;11.63;;;8.00;;
22965;SDS011;11649;48.090;9.754;2022-11-15T00:33:16;15.77;;;8.98;;
22965;SDS011;11649;48.090;9.754;2022-11-15T00:35:44;11.95;;;9.00;;
22965;SDS011;11649;48.090;9.754;2022-11-15T00:38:10;12.05;;;7.35;;
22965;SDS011;11649;48.090;9.754;2022-11-15T00:40:37;11.73;;;8.23;;
22965;SDS011;11649;48.090;9.754;2022-11-15T00:43:04;10.50;;;7.63;;
22965;SDS011;11649;48.090;9.754;2022-11-15T00:45:30;12.77;;;9.15;;
22965;SDS011;11649;48.090;9.754;2022-11-15T00:47:57;12.90;;;8.63;;
22965;SDS011;11649;48.090;9.754;2022-11-15T00:50:24;12.95;;;9.15;;
22965;SDS011;11649;48.090;9.754;2022-11-15T00:52:50;14.70;;;8.75;;
22965;SDS011;11649;48.090;9.754;2022-11-15T00:55:17;13.27;;;9.27;;
22965;SDS011;11649;48.090;9.754;2022-11-15T00:57:45;11.35;;;7.78;;
22965;SDS011;11649;48.090;9.754;2022-11-15T01:00:13;10.77;;;7.45;;
22965;SDS011;11649;48.090;9.754;2022-11-15T01:02:40;14.35;;;9.20;;
22965;SDS011;11649;48.090;9.754;2022-11-15T01:05:07;13.85;;;8.25;;
22965;SDS011;11649;48.090;9.754;2022-11-15T01:07:34;12.80;;;8.50;;
22965;SDS011;11649;48.090;9.754;2022-11-15T01:10:01;13.48;;;9.15;;
22965;SDS011;11649;48.090;9.754;2022-11-15T01:12:28;10.13;;;7.65;;
22965;SDS011;11649;48.090;9.754;2022-11-15T01:14:55;9.85;;;6.35;;
22965;SDS011;11649;48.090;9.754;2022-11-15T01:17:22;7.57;;;5.70;;
22965;SDS011;11649;48.090;9.754;2022-11-15T01:19:48;10.20;;;6.78;;
22965;SDS011;11649;48.090;9.754;2022-11-15T01:22:15;10.77;;;6.72;;
22965;SDS011;11649;48.090;9.754;2022-11-15T01:24:42;9.02;;;6.47;;
22965;SDS011;11649;48.090;9.754;2022-11-15T01:27:09;11.60;;;6.43;;
22965;SDS011;11649;48.090;9.754;2022-11-15T01:29:36;8.95;;;6.00;;
22965;SDS011;11649;48.090;9.754;2022-11-15T01:32:03;7.07;;;5.50;;
22965;SDS011;11649;48.090;9.754;2022-11-15T01:34:30;6.45;;;4.95;;
22965;SDS011;11649;48.090;9.754;2022-11-15T01:36:56;5.72;;;4.68;;
22965;SDS011;11649;48.090;9.754;2022-11-15T01:39:23;6.03;;;4.78;;
22965;SDS011;11649;48.090;9.754;2022-11-15T01:41:50;12.15;;;6.93;;
22965;SDS011;11649;48.090;9.754;2022-11-15T01:52:27;6.00;;;4.65;;
22965;SDS011;11649;48.090;9.754;2022-11-15T01:58:02;5.05;;;3.85;;
22965;SDS011;11649;48.090;9.754;2022-11-15T02:00:31;4.75;;;3.40;;
22965;SDS011;11649;48.090;9.754;2022-11-15T02:02:58;5.10;;;3.33;;
22965;SDS011;11649;48.090;9.754;2022-11-15T02:05:25;3.72;;;3.20;;
22965;SDS011;11649;48.090;9.754;2022-11-15T02:07:52;3.85;;;3.30;;
22965;SDS011;11649;48.090;9.754;2022-11-15T02:10:21;5.57;;;3.53;;
22965;SDS011;11649;48.090;9.754;2022-11-15T02:12:49;4.28;;;3.30;;
22965;SDS011;11649;48.090;9.754;2022-11-15T02:15:16;8.43;;;4.00;;
22965;SDS011;11649;48.090;9.754;2022-11-15T02:23:29;10.38;;;6.43;;
22965;SDS011;11649;48.090;9.754;2022-11-15T02:28:44;12.25;;;6.50;;
22965;SDS011;11649;48.090;9.754;2022-11-15T02:31:32;11.30;;;6.03;;
22965;SDS011;11649;48.090;9.754;2022-11-15T02:40:04;8.95;;;6.30;;
22965;SDS011;11649;48.090;9.754;2022-11-15T02:42:40;6.63;;;4.80;;
22965;SDS011;11649;48.090;9.754;2022-11-15T02:45:35;3.97;;;3.20;;
22965;SDS011;11649;48.090;9.754;2022-11-15T02:48:06;5.72;;;3.80;;
22965;SDS011;11649;48.090;9.754;2022-11-15T02:50:35;4.03;;;3.30;;
22965;SDS011;11649;48.090;9.754;2022-11-15T02:53:02;3.90;;;3.15;;
22965;SDS011;11649;48.090;9.754;2022-11-15T02:58:19;4.97;;;3.38;;
22965;SDS011;11649;48.090;9.754;2022-11-15T03:06:32;5.18;;;3.10;;
22965;SDS011;11649;48.090;9.754;2022-11-15T03:09:24;4.75;;;3.38;;
22965;SDS011;11649;48.090;9.754;2022-11-15T03:12:11;7.15;;;3.63;;
22965;SDS011;11649;48.090;9.754;2022-11-15T03:19:57;5.38;;;3.70;;
22965;SDS011;11649;48.090;9.754;2022-11-15T03:22:28;3.65;;;2.75;;
22965;SDS011;11649;48.090;9.754;2022-11-15T03:25:00;6.40;;;3.15;;
22965;SDS011;11649;48.090;9.754;2022-11-15T03:27:33;3.58;;;3.05;;
22965;SDS011;11649;48.090;9.754;2022-11-15T03:30:05;2.95;;;2.53;;
22965;SDS011;11649;48.090;9.754;2022-11-15T03:32:44;4.15;;;2.85;;
22965;SDS011;11649;48.090;9.754;2022-11-15T03:35:19;4.13;;;3.20;;
22965;SDS011;11649;48.090;9.754;2022-11-15T03:37:50;6.53;;;3.28;;
22965;SDS011;11649;48.090;9.754;2022-11-15T03:40:37;6.65;;;4.20;;
22965;SDS011;11649;48.090;9.754;2022-11-15T03:45:46;7.60;;;4.68;;
22965;SDS011;11649;48.090;9.754;2022-11-15T03:48:20;5.70;;;4.15;;
22965;SDS011;11649;48.090;9.754;2022-11-15T03:50:53;7.05;;;4.90;;
22965;SDS011;11649;48.090;9.754;2022-11-15T03:53:20;5.53;;;4.15;;
22965;SDS011;11649;48.090;9.754;2022-11-15T03:55:47;10.10;;;4.20;;
22965;SDS011;11649;48.090;9.754;2022-11-15T03:58:14;5.82;;;4.35;;
22965;SDS011;11649;48.090;9.754;2022-11-15T04:00:40;5.15;;;3.78;;
22965;SDS011;11649;48.090;9.754;2022-11-15T04:03:07;3.92;;;3.40;;
22965;SDS011;11649;48.090;9.754;2022-11-15T04:05:34;8.15;;;4.30;;
22965;SDS011;11649;48.090;9.754;2022-11-15T04:08:01;5.82;;;4.15;;
22965;SDS011;11649;48.090;9.754;2022-11-15T04:10:28;7.10;;;4.68;;
22965;SDS011;11649;48.090;9.754;2022-11-15T04:12:54;6.53;;;4.63;;
22965;SDS011;11649;48.090;9.754;2022-11-15T04:15:22;5.03;;;4.10;;
22965;SDS011;11649;48.090;9.754;2022-11-15T04:17:50;8.07;;;4.35;;
22965;SDS011;11649;48.090;9.754;2022-11-15T04:23:16;5.32;;;4.03;;
22965;SDS011;11649;48.090;9.754;2022-11-15T04:26:06;6.68;;;4.57;;
22965;SDS011;11649;48.090;9.754;2022-11-15T04:28:38;7.22;;;4.32;;
22965;SDS011;11649;48.090;9.754;2022-11-15T04:31:26;5.22;;;4.25;;
22965;SDS011;11649;48.090;9.754;2022-11-15T04:33:53;8.77;;;4.78;;
22965;SDS011;11649;48.090;9.754;2022-11-15T04:36:20;6.57;;;4.68;;
22965;SDS011;11649;48.090;9.754;2022-11-15T04:39:05;6.90;;;4.40;;
22965;SDS011;11649;48.090;9.754;2022-11-15T04:41:32;6.10;;;4.85;;
22965;SDS011;11649;48.090;9.754;2022-11-15T04:43:59;7.60;;;4.60;;
22965;SDS011;11649;48.090;9.754;2022-11-15T04:46:26;7.93;;;4.75;;
22965;SDS011;11649;48.090;9.754;2022-11-15T04:48:53;7.03;;;4.68;;
22965;SDS011;11649;48.090;9.754;2022-11-15T04:51:24;7.80;;;5.22;;
22965;SDS011;11649;48.090;9.754;2022-11-15T04:53:51;6.35;;;4.95;;
22965;SDS011;11649;48.090;9.754;2022-11-15T04:56:18;6.70;;;4.82;;
22965;SDS011;11649;48.090;9.754;2022-11-15T04:58:45;8.73;;;4.82;;
22965;SDS011;11649;48.090;9.754;2022-11-15T05:01:14;8.45;;;5.25;;
22965;SDS011;11649;48.090;9.754;2022-11-15T05:03:42;5.88;;;4.63;;
22965;SDS011;11649;48.090;9.754;2022-11-15T05:06:27;8.68;;;5.55;;
22965;SDS011;11649;48.090;9.754;2022-11-15T05:08:54;8.40;;;5.07;;
22965;SDS011;11649;48.090;9.754;2022-11-15T05:11:22;9.55;;;6.47;;
22965;SDS011;11649;48.090;9.754;2022-11-15T05:13:49;10.18;;;5.70;;
22965;SDS011;11649;48.090;9.754;2022-11-15T05:16:16;8.43;;;5.57;;
22965;SDS011;11649;48.090;9.754;2022-11-15T05:18:43;11.38;;;7.07;;
22965;SDS011;11649;48.090;9.754;2022-11-15T05:21:11;15.00;;;9.35;;
22965;SDS011;11649;48.090;9.754;2022-11-15T05:23:40;12.27;;;8.20;;
22965;SDS011;11649;48.090;9.754;2022-11-15T05:26:07;17.88;;;9.80;;
22965;SDS011;11649;48.090;9.754;2022-11-15T05:28:35;14.63;;;8.63;;
22965;SDS011;11649;48.090;9.754;2022-11-15T05:31:03;12.75;;;7.75;;
22965;SDS011;11649;48.090;9.754;2022-11-15T05:33:32;11.77;;;7.68;;
22965;SDS011;11649;48.090;9.754;2022-11-15T05:36:07;12.20;;;7.35;;
22965;SDS011;11649;48.090;9.754;2022-11-15T05:38:52;8.23;;;6.20;;
22965;SDS011;11649;48.090;9.754;2022-11-15T05:41:20;11.95;;;5.50;;
22965;SDS011;11649;48.090;9.754;2022-11-15T05:43:52;7.72;;;5.60;;
22965;SDS011;11649;48.090;9.754;2022-11-15T05:46:20;7.90;;;6.05;;
22965;SDS011;11649;48.090;9.754;2022-11-15T05:48:47;8.30;;;5.65;;
22965;SDS011;11649;48.090;9.754;2022-11-15T05:51:17;8.68;;;5.68;;
22965;SDS011;11649;48.090;9.754;2022-11-15T05:53:46;7.65;;;5.70;;
22965;SDS011;11649;48.090;9.754;2022-11-15T05:56:14;9.57;;;5.80;;
22965;SDS011;11649;48.090;9.754;2022-11-15T05:58:41;8.15;;;5.65;;
22965;SDS011;11649;48.090;9.754;2022-11-15T06:01:09;10.73;;;6.25;;
22965;SDS011;11649;48.090;9.754;2022-11-15T06:03:36;9.82;;;6.10;;
22965;SDS011;11649;48.090;9.754;2022-11-15T06:06:03;20.80;;;11.55;;
22965;SDS011;11649;48.090;9.754;2022-11-15T06:08:29;13.55;;;7.72;;
22965;SDS011;11649;48.090;9.754;2022-11-15T06:10:56;9.60;;;6.32;;
22965;SDS011;11649;48.090;9.754;2022-11-15T06:13:28;10.40;;;6.53;;
22965;SDS011;11649;48.090;9.754;2022-11-15T06:15:55;15.75;;;9.65;;
22965;SDS011;11649;48.090;9.754;2022-11-15T06:18:23;13.18;;;8.30;;
22965;SDS011;11649;48.090;9.754;2022-11-15T06:20:50;15.52;;;9.38;;
22965;SDS011;11649;48.090;9.754;2022-11-15T06:23:16;15.90;;;10.05;;
22965;SDS011;11649;48.090;9.754;2022-11-15T06:25:43;11.98;;;8.95;;
22965;SDS011;11649;48.090;9.754;2022-11-15T06:28:10;14.57;;;8.85;;
22965;SDS011;11649;48.090;9.754;2022-11-15T06:30:37;18.52;;;10.00;;
22965;SDS011;11649;48.090;9.754;2022-11-15T06:33:04;13.32;;;9.25;;
22965;SDS011;11649;48.090;9.754;2022-11-15T06:35:33;11.07;;;7.53;;
22965;SDS011;11649;48.090;9.754;2022-11-15T06:38:04;7.32;;;4.75;;
22965;SDS011;11649;48.090;9.754;2022-11-15T06:40:34;5.53;;;4.03;;
22965;SDS011;11649;48.090;9.754;2022-11-15T06:43:02;8.85;;;4.53;;
22965;SDS011;11649;48.090;9.754;2022-11-15T06:45:30;11.32;;;6.47;;
22965;SDS011;11649;48.090;9.754;2022-11-15T06:47:58;10.38;;;6.65;;
22965;SDS011;11649;48.090;9.754;2022-11-15T06:50:25;13.45;;;7.38;;
22965;SDS011;11649;48.090;9.754;2022-11-15T06:52:52;9.18;;;7.18;;
22965;SDS011;11649;48.090;9.754;2022-11-15T06:55:18;10.90;;;7.60;;
22965;SDS011;11649;48.090;9.754;2022-11-15T06:57:48;13.57;;;8.57;;
22965;SDS011;11649;48.090;9.754;2022-11-15T07:00:17;7.88;;;5.90;;
22965;SDS011;11649;48.090;9.754;2022-11-15T07:02:45;9.05;;;5.90;;
22965;SDS011;11649;48.090;9.754;2022-11-15T07:05:13;10.02;;;6.18;;
22965;SDS011;11649;48.090;9.754;2022-11-15T07:07:40;9.70;;;7.32;;
22965;SDS011;11649;48.090;9.754;2022-11-15T07:10:07;12.23;;;8.32;;
22965;SDS011;11649;48.090;9.754;2022-11-15T07:12:34;14.98;;;9.43;;
22965;SDS011;11649;48.090;9.754;2022-11-15T07:15:01;20.50;;;11.30;;
22965;SDS011;11649;48.090;9.754;2022-11-15T07:17:29;23.95;;;14.32;;
22965;SDS011;11649;48.090;9.754;2022-11-15T07:19:55;26.08;;;15.38;;
22965;SDS011;11649;48.090;9.754;2022-11-15T07:22:22;20.45;;;13.27;;
22965;SDS011;11649;48.090;9.754;2022-11-15T07:24:49;13.90;;;8.10;;
22965;SDS011;11649;48.090;9.754;2022-11-15T07:27:16;38.50;;;19.05;;
22965;SDS011;11649;48.090;9.754;2022-11-15T07:29:42;45.78;;;23.90;;
22965;SDS011;11649;48.090;9.754;2022-11-15T07:32:09;43.53;;;22.27;;
22965;SDS011;11649;48.090;9.754;2022-11-15T07:34:36;27.90;;;16.52;;
22965;SDS011;11649;48.090;9.754;2022-11-15T07:37:03;20.33;;;12.13;;
22965;SDS011;11649;48.090;9.754;2022-11-15T07:39:31;15.48;;;10.25;;
22965;SDS011;11649;48.090;9.754;2022-11-15T07:41:58;15.23;;;10.25;;
22965;SDS011;11649;48.090;9.754;2022-11-15T07:44:44;19.45;;;11.15;;
22965;SDS011;11649;48.090;9.754;2022-11-15T07:47:11;24.55;;;13.32;;
22965;SDS011;11649;48.090;9.754;2022-11-15T07:49:37;18.80;;;12.68;;
22965;SDS011;11649;48.090;9.754;2022-11-15T07:52:04;16.90;;;11.30;;
22965;SDS011;11649;48.090;9.754;2022-11-15T07:54:31;16.08;;;10.55;;
22965;SDS011;11649;48.090;9.754;2022-11-15T07:56:58;15.60;;;9.50;;
22965;SDS011;11649;48.090;9.754;2022-11-15T07:59:32;15.82;;;10.10;;
22965;SDS011;11649;48.090;9.754;2022-11-15T08:01:59;16.52;;;10.68;;
22965;SDS011;11649;48.090;9.754;2022-11-15T08:04:26;16.10;;;10.15;;
22965;SDS011;11649;48.090;9.754;2022-11-15T08:06:52;14.45;;;10.70;;
22965;SDS011;11649;48.090;9.754;2022-11-15T08:09:19;14.40;;;10.32;;
22965;SDS011;11649;48.090;9.754;2022-11-15T08:11:46;13.25;;;9.82;;
22965;SDS011;11649;48.090;9.754;2022-11-15T08:14:13;13.98;;;9.40;;
22965;SDS011;11649;48.090;9.754;2022-11-15T08:16:40;10.07;;;7.85;;
22965;SDS011;11649;48.090;9.754;2022-11-15T08:19:06;13.40;;;8.68;;
22965;SDS011;11649;48.090;9.754;2022-11-15T08:21:33;13.68;;;9.05;;
22965;SDS011;11649;48.090;9.754;2022-11-15T08:24:01;12.40;;;8.80;;
22965;SDS011;11649;48.090;9.754;2022-11-15T08:26:28;14.60;;;8.93;;
22965;SDS011;11649;48.090;9.754;2022-11-15T08:28:56;15.43;;;9.60;;
22965;SDS011;11649;48.090;9.754;2022-11-15T08:31:23;16.63;;;10.57;;
22965;SDS011;11649;48.090;9.754;2022-11-15T08:33:50;10.80;;;7.20;;
22965;SDS011;11649;48.090;9.754;2022-11-15T08:36:17;8.77;;;6.78;;
22965;SDS011;11649;48.090;9.754;2022-11-15T08:38:44;10.43;;;7.20;;
22965;SDS011;11649;48.090;9.754;2022-11-15T08:41:18;7.80;;;6.63;;
22965;SDS011;11649;48.090;9.754;2022-11-15T08:43:54;8.43;;;7.15;;
22965;SDS011;11649;48.090;9.754;2022-11-15T08:46:21;12.05;;;8.82;;
22965;SDS011;11649;48.090;9.754;2022-11-15T08:48:48;13.75;;;8.32;;
22965;SDS011;11649;48.090;9.754;2022-11-15T08:51:14;12.98;;;8.10;;
22965;SDS011;11649;48.090;9.754;2022-11-15T08:53:42;9.40;;;7.97;;
22965;SDS011;11649;48.090;9.754;2022-11-15T08:56:09;10.10;;;7.95;;
22965;SDS011;11649;48.090;9.754;2022-11-15T08:58:37;17.02;;;9.15;;
22965;SDS011;11649;48.090;9.754;2022-11-15T09:01:05;14.00;;;8.43;;
22965;SDS011;11649;48.090;9.754;2022-11-15T09:03:32;10.50;;;7.40;;
22965;SDS011;11649;48.090;9.754;2022-11-15T09:06:00;13.25;;;7.32;;
22965;SDS011;11649;48.090;9.754;2022-11-15T09:08:29;15.15;;;5.95;;
22965;SDS011;11649;48.090;9.754;2022-11-15T09:11:17;12.77;;;6.80;;
22965;SDS011;11649;48.090;9.754;2022-11-15T09:13:46;21.30;;;8.13;;
22965;SDS011;11649;48.090;9.754;2022-11-15T09:16:13;11.73;;;6.47;;
22965;SDS011;11649;48.090;9.754;2022-11-15T09:18:41;18.00;;;7.75;;
22965;SDS011;11649;48.090;9.754;2022-11-15T09:21:08;19.45;;;7.82;;
22965;SDS011;11649;48.090;9.754;2022-11-15T09:23:35;10.63;;;6.95;;
22965;SDS011;11649;48.090;9.754;2022-11-15T09:26:03;16.55;;;9.07;;
22965;SDS011;11649;48.090;9.754;2022-11-15T09:28:31;10.50;;;7.20;;
22965;SDS011;11649;48.090;9.754;2022-11-15T09:31:01;11.98;;;7.25;;
22965;SDS011;11649;48.090;9.754;2022-11-15T09:33:29;13.65;;;9.50;;
22965;SDS011;11649;48.090;9.754;2022-11-15T09:36:00;11.13;;;7.80;;
22965;SDS011;11649;48.090;9.754;2022-11-15T09:38:29;15.30;;;8.68;;
22965;SDS011;11649;48.090;9.754;2022-11-15T09:49:17;13.02;;;9.02;;
22965;SDS011;11649;48.090;9.754;2022-11-15T09:51:45;11.30;;;8.75;;
22965;SDS011;11649;48.090;9.754;2022-11-15T09:54:19;13.23;;;7.95;;
22965;SDS011;11649;48.090;9.754;2022-11-15T09:57:12;11.13;;;7.32;;
22965;SDS011;11649;48.090;9.754;2022-11-15T09:59:58;14.63;;;7.85;;
22965;SDS011;11649;48.090;9.754;2022-11-15T10:05:28;10.98;;;8.07;;
22965;SDS011;11649;48.090;9.754;2022-11-15T10:11:11;9.82;;;8.18;;
22965;SDS011;11649;48.090;9.754;2022-11-15T10:14:05;10.38;;;7.70;;
22965;SDS011;11649;48.090;9.754;2022-11-15T10:19:28;9.70;;;7.65;;
22965;SDS011;11649;48.090;9.754;2022-11-15T10:22:12;12.38;;;9.05;;
22965;SDS011;11649;48.090;9.754;2022-11-15T10:24:50;9.10;;;6.90;;
22965;SDS011;11649;48.090;9.754;2022-11-15T10:27:26;10.15;;;7.28;;
22965;SDS011;11649;48.090;9.754;2022-11-15T10:29:53;11.18;;;8.38;;
22965;SDS011;11649;48.090;9.754;2022-11-15T10:32:20;12.07;;;6.63;;
22965;SDS011;11649;48.090;9.754;2022-11-15T10:34:48;8.73;;;6.70;;
22965;SDS011;11649;48.090;9.754;2022-11-15T10:37:26;7.63;;;6.60;;
22965;SDS011;11649;48.090;9.754;2022-11-15T10:42:48;12.57;;;7.40;;
22965;SDS011;11649;48.090;9.754;2022-11-15T10:45:36;9.07;;;6.28;;
22965;SDS011;11649;48.090;9.754;2022-11-15T10:50:41;9.85;;;6.38;;
22965;SDS011;11649;48.090;9.754;2022-11-15T10:56:07;6.97;;;6.00;;
22965;SDS011;11649;48.090;9.754;2022-11-15T10:58:41;6.13;;;5.45;;
22965;SDS011;11649;48.090;9.754;2022-11-15T11:01:21;10.45;;;5.80;;
22965;SDS011;11649;48.090;9.754;2022-11-15T11:04:03;7.05;;;5.85;;
22965;SDS011;11649;48.090;9.754;2022-11-15T11:06:50;8.68;;;6.05;;
22965;SDS011;11649;48.090;9.754;2022-11-15T11:11:55;6.28;;;5.32;;
22965;SDS011;11649;48.090;9.754;2022-11-15T11:14:30;7.45;;;5.65;;
22965;SDS011;11649;48.090;9.754;2022-11-15T11:33:51;5.90;;;5.18;;
22965;SDS011;11649;48.090;9.754;2022-11-15T11:36:25;6.20;;;5.20;;
22965;SDS011;11649;48.090;9.754;2022-11-15T11:47:21;6.03;;;5.07;;
22965;SDS011;11649;48.090;9.754;2022-11-15T11:49:51;6.07;;;5.18;;
22965;SDS011;11649;48.090;9.754;2022-11-15T11:52:23;7.03;;;5.15;;
22965;SDS011;11649;48.090;9.754;2022-11-15T11:54:59;5.53;;;4.88;;
22965;SDS011;11649;48.090;9.754;2022-11-15T12:00:31;9.50;;;7.13;;
22965;SDS011;11649;48.090;9.754;2022-11-15T12:03:14;6.10;;;5.15;;
22965;SDS011;11649;48.090;9.754;2022-11-15T12:06:00;5.57;;;4.70;;
22965;SDS011;11649;48.090;9.754;2022-11-15T12:08:32;8.32;;;4.60;;
22965;SDS011;11649;48.090;9.754;2022-11-15T12:11:21;6.07;;;5.00;;
22965;SDS011;11649;48.090;9.754;2022-11-15T12:14:04;6.55;;;5.20;;
22965;SDS011;11649;48.090;9.754;2022-11-15T12:16:39;5.72;;;4.47;;
22965;SDS011;11649;48.090;9.754;2022-11-15T12:19:08;6.40;;;4.78;;
22965;SDS011;11649;48.090;9.754;2022-11-15T12:21:38;7.93;;;5.15;;
22965;SDS011;11649;48.090;9.754;2022-11-15T12:24:25;5.70;;;4.97;;
22965;SDS011;11649;48.090;9.754;2022-11-15T12:27:01;7.30;;;4.40;;
22965;SDS011;11649;48.090;9.754;2022-11-15T12:29:36;6.88;;;4.80;;
22965;SDS011;11649;48.090;9.754;2022-11-15T12:32:04;6.07;;;4.47;;
22965;SDS011;11649;48.090;9.754;2022-11-15T12:34:40;5.75;;;4.20;;
22965;SDS011;11649;48.090;9.754;2022-11-15T12:40:04;5.40;;;3.90;;
22965;SDS011;11649;48.090;9.754;2022-11-15T12:45:43;6.55;;;4.40;;
22965;SDS011;11649;48.090;9.754;2022-11-15T12:58:42;9.55;;;5.70;;
22965;SDS011;11649;48.090;9.754;2022-11-15T13:06:54;10.45;;;8.00;;
22965;SDS011;11649;48.090;9.754;2022-11-15T13:12:02;11.65;;;7.85;;
22965;SDS011;11649;48.090;9.754;2022-11-15T13:14:40;10.23;;;7.85;;
22965;SDS011;11649;48.090;9.754;2022-11-15T13:17:25;10.75;;;8.05;;
22965;SDS011;11649;48.090;9.754;2022-11-15T13:19:58;8.68;;;7.72;;
22965;SDS011;11649;48.090;9.754;2022-11-15T13:22:44;12.93;;;8.98;;
22965;SDS011;11649;48.090;9.754;2022-11-15T13:30:37;19.48;;;12.05;;
22965;SDS011;11649;48.090;9.754;2022-11-15T13:33:13;20.92;;;11.50;;
22965;SDS011;11649;48.090;9.754;2022-11-15T13:36:03;10.30;;;7.63;;
22965;SDS011;11649;48.090;9.754;2022-11-15T13:38:34;18.60;;;10.18;;
22965;SDS011;11649;48.090;9.754;2022-11-15T13:41:22;24.98;;;14.50;;
22965;SDS011;11649;48.090;9.754;2022-11-15T13:43:51;19.98;;;11.27;;
22965;SDS011;11649;48.090;9.754;2022-11-15T13:48:55;16.35;;;8.15;;
22965;SDS011;11649;48.090;9.754;2022-11-15T13:53:58;9.77;;;7.13;;
22965;SDS011;11649;48.090;9.754;2022-11-15T13:56:35;13.27;;;9.15;;
22965;SDS011;11649;48.090;9.754;2022-11-15T13:59:43;27.58;;;12.98;;
22965;SDS011;11649;48.090;9.754;2022-11-15T14:02:30;11.82;;;7.40;;
22965;SDS011;11649;48.090;9.754;2022-11-15T14:05:05;10.93;;;6.95;;
22965;SDS011;11649;48.090;9.754;2022-11-15T14:07:54;8.07;;;6.45;;
22965;SDS011;11649;48.090;9.754;2022-11-15T14:10:32;9.20;;;6.78;;
22965;SDS011;11649;48.090;9.754;2022-11-15T14:13:01;8.90;;;6.78;;
22965;SDS011;11649;48.090;9.754;2022-11-15T14:15:34;8.35;;;6.97;;
22965;SDS011;11649;48.090;9.754;2022-11-15T14:18:02;8.15;;;7.07;;
22965;SDS011;11649;48.090;9.754;2022-11-15T14:20:31;8.75;;;6.28;;
22965;SDS011;11649;48.090;9.754;2022-11-15T14:23:20;8.00;;;6.05;;
22965;SDS011;11649;48.090;9.754;2022-11-15T14:25:52;7.50;;;6.05;;
22965;SDS011;11649;48.090;9.754;2022-11-15T14:30:52;7.22;;;6.07;;
22965;SDS011;11649;48.090;9.754;2022-11-15T14:33:34;7.80;;;6.38;;
22965;SDS011;11649;48.090;9.754;2022-11-15T14:38:39;9.02;;;6.70;;
22965;SDS011;11649;48.090;9.754;2022-11-15T14:41:27;11.25;;;7.32;;
22965;SDS011;11649;48.090;9.754;2022-11-15T14:43:54;10.70;;;7.63;;
22965;SDS011;11649;48.090;9.754;2022-11-15T14:46:21;10.30;;;7.78;;
22965;SDS011;11649;48.090;9.754;2022-11-15T14:48:48;9.63;;;6.63;;
22965;SDS011;11649;48.090;9.754;2022-11-15T14:51:21;8.52;;;6.00;;
22965;SDS011;11649;48.090;9.754;2022-11-15T14:53:48;7.85;;;6.43;;
22965;SDS011;11649;48.090;9.754;2022-11-15T14:56:15;7.30;;;5.78;;
22965;SDS011;11649;48.090;9.754;2022-11-15T14:58:43;6.65;;;5.78;;
22965;SDS011;11649;48.090;9.754;2022-11-15T15:01:18;7.28;;;6.15;;
22965;SDS011;11649;48.090;9.754;2022-11-15T15:03:48;9.77;;;6.47;;
22965;SDS011;11649;48.090;9.754;2022-11-15T15:06:14;8.82;;;6.88;;
22965;SDS011;11649;48.090;9.754;2022-11-15T15:08:44;11.13;;;8.13;;
22965;SDS011;11649;48.090;9.754;2022-11-15T15:11:22;8.40;;;6.40;;
22965;SDS011;11649;48.090;9.754;2022-11-15T15:13:51;7.40;;;6.10;;
22965;SDS011;11649;48.090;9.754;2022-11-15T15:16:19;11.93;;;8.50;;
22965;SDS011;11649;48.090;9.754;2022-11-15T15:18:46;19.55;;;12.70;;
22965;SDS011;11649;48.090;9.754;2022-11-15T15:21:23;16.52;;;10.82;;
22965;SDS011;11649;48.090;9.754;2022-11-15T15:23:56;16.23;;;10.93;;
22965;SDS011;11649;48.090;9.754;2022-11-15T15:26:23;22.27;;;17.63;;
22965;SDS011;11649;48.090;9.754;2022-11-15T15:28:51;29.13;;;23.15;;
22965;SDS011;11649;48.090;9.754;2022-11-15T15:31:18;15.48;;;10.85;;
22965;SDS011;11649;48.090;9.754;2022-11-15T15:33:45;16.33;;;10.30;;
22965;SDS011;11649;48.090;9.754;2022-11-15T15:36:12;13.98;;;10.55;;
22965;SDS011;11649;48.090;9.754;2022-11-15T15:38:40;12.75;;;10.80;;
22965;SDS011;11649;48.090;9.754;2022-11-15T15:41:11;15.35;;;12.85;;
22965;SDS011;11649;48.090;9.754;2022-11-15T15:43:38;15.80;;;11.88;;
22965;SDS011;11649;48.090;9.754;2022-11-15T15:46:12;11.02;;;8.35;;
22965;SDS011;11649;48.090;9.754;2022-11-15T15:48:44;9.40;;;7.38;;
22965;SDS011;11649;48.090;9.754;2022-11-15T15:51:11;11.05;;;8.45;;
22965;SDS011;11649;48.090;9.754;2022-11-15T15:53:45;14.15;;;9.07;;
22965;SDS011;11649;48.090;9.754;2022-11-15T15:56:13;10.20;;;8.18;;
22965;SDS011;11649;48.090;9.754;2022-11-15T15:58:40;12.77;;;10.23;;
22965;SDS011;11649;48.090;9.754;2022-11-15T16:01:07;16.45;;;9.68;;
22965;SDS011;11649;48.090;9.754;2022-11-15T16:03:34;13.63;;;9.93;;
22965;SDS011;11649;48.090;9.754;2022-11-15T16:06:01;11.93;;;9.20;;
22965;SDS011;11649;48.090;9.754;2022-11-15T16:08:30;12.10;;;9.13;;
22965;SDS011;11649;48.090;9.754;2022-11-15T16:11:17;11.40;;;8.23;;
22965;SDS011;11649;48.090;9.754;2022-11-15T16:13:44;10.77;;;8.20;;
22965;SDS011;11649;48.090;9.754;2022-11-15T16:16:12;10.60;;;7.60;;
22965;SDS011;11649;48.090;9.754;2022-11-15T16:18:40;9.93;;;6.90;;
22965;SDS011;11649;48.090;9.754;2022-11-15T16:21:11;9.93;;;7.25;;
22965;SDS011;11649;48.090;9.754;2022-11-15T16:23:38;10.73;;;7.55;;
22965;SDS011;11649;48.090;9.754;2022-11-15T16:29:03;11.32;;;7.25;;
22965;SDS011;11649;48.090;9.754;2022-11-15T16:31:29;10.32;;;7.32;;
22965;SDS011;11649;48.090;9.754;2022-11-15T16:33:56;10.88;;;6.40;;
22965;SDS011;11649;48.090;9.754;2022-11-15T16:36:24;8.52;;;6.60;;
22965;SDS011;11649;48.090;9.754;2022-11-15T16:38:56;8.85;;;6.97;;
22965;SDS011;11649;48.090;9.754;2022-11-15T16:41:23;11.27;;;7.25;;
22965;SDS011;11649;48.090;9.754;2022-11-15T16:43:51;11.05;;;7.63;;
22965;SDS011;11649;48.090;9.754;2022-11-15T16:46:19;10.50;;;7.53;;
22965;SDS011;11649;48.090;9.754;2022-11-15T16:48:47;11.10;;;7.78;;
22965;SDS011;11649;48.090;9.754;2022-11-15T16:51:15;12.48;;;8.60;;
22965;SDS011;11649;48.090;9.754;2022-11-15T16:53:42;10.25;;;8.02;;
22965;SDS011;11649;48.090;9.754;2022-11-15T16:56:21;13.88;;;8.15;;
22965;SDS011;11649;48.090;9.754;2022-11-15T16:58:53;11.38;;;7.80;;
22965;SDS011;11649;48.090;9.754;2022-11-15T17:01:22;11.13;;;7.80;;
22965;SDS011;11649;48.090;9.754;2022-11-15T17:03:53;13.65;;;8.00;;
22965;SDS011;11649;48.090;9.754;2022-11-15T17:06:21;9.48;;;7.47;;
22965;SDS011;11649;48.090;9.754;2022-11-15T17:08:48;12.60;;;7.90;;
22965;SDS011;11649;48.090;9.754;2022-11-15T17:11:16;9.00;;;7.38;;
22965;SDS011;11649;48.090;9.754;2022-11-15T17:13:45;10.52;;;7.97;;
22965;SDS011;11649;48.090;9.754;2022-11-15T17:16:13;12.35;;;8.35;;
22965;SDS011;11649;48.090;9.754;2022-11-15T17:18:41;11.75;;;7.03;;
22965;SDS011;11649;48.090;9.754;2022-11-15T17:21:12;10.57;;;8.23;;
22965;SDS011;11649;48.090;9.754;2022-11-15T17:23:40;10.68;;;7.53;;